Amargosa Valley, Nevada Weather observations

Data are for observation ending at time listed.
 Day   Time    Ave.   Ave.  Ave.  Vector   Max.   Stn.    Total    Solar   Ave.  
  of    of     Air    Rel.  Wind   Wind    Wind   Baro.  Precip.   Rad.    Soil  
Year   Day     Temp.  Hum.  Speed  Dir.    Gust   Pres.                    Temp. 
2016   (PST)    F      %     mph   deg.    mph     mb.     in.     W/m2     F   
------------------------------------------------------------------------------
  39   19:00   62.7    24    1.7   334      6.4   940.7    0.00       0    60.1
  39   19:10   60.8    26    3.3   321      8.4   940.8    0.00       0    60.1
  39   19:20   61.0    25    6.9   308     14.8   940.8    0.00       0    60.0
  39   19:30   59.2    27    9.3   306     13.7   940.8    0.00       0    60.0
  39   19:40   57.8    29    8.6   306     13.1   940.8    0.00       0    59.9
  39   19:50   57.0    30    7.6   307     12.1   940.8    0.00       0    59.9
  39   20:00   56.9    30    3.1   316     10.4   940.9    0.00       0    59.8
  39   20:10   56.2    30    4.6   316      9.0   940.9    0.00       0    59.8
  39   20:20   56.5    30    5.0   311     11.3   941.0    0.00       0    59.7
  39   20:30   55.9    30    3.5   314      9.6   941.0    0.00       0    59.6
  39   20:40   56.5    29    6.8   308     11.3   941.0    0.00       0    59.6
  39   20:50   56.6    29    6.1   314     11.5   940.9    0.00       0    59.5
  39   21:00   56.4    29    7.1   308     12.1   940.8    0.00       0    59.4
  39   21:10   55.4    30    4.3   304      9.8   941.0    0.00       0    59.3
  39   21:20   54.3    32    5.3   308     12.2   941.0    0.00       0    59.2
  39   21:30   54.8    31    4.6   312     10.7   940.9    0.00       0    59.2
  39   21:40   54.2    32    6.9   307     12.1   940.9    0.00       0    59.1
  39   21:50   53.3    34    4.5   312     11.0   941.0    0.00       0    59.0
  39   22:00   52.9    34    4.0   305      7.7   941.1    0.00       0    58.9
  39   22:10   52.3    34    3.8   307      7.5   941.1    0.00       0    58.8
  39   22:20   53.0    33    7.4   306     12.2   941.0    0.00       0    58.7
  39   22:30   54.2    31    6.3   310     11.3   941.0    0.00       0    58.6
  39   22:40   54.6    31    5.6   311     12.6   941.2    0.00       0    58.5
  39   22:50   53.2    33    2.2   319      5.3   941.2    0.00       0    58.5
  39   23:00   53.3    32    5.9   310     10.5   941.1    0.00       0    58.4
  39   23:10   54.6    31    6.1   311     13.0   941.2    0.00       0    58.3
  39   23:20   54.6    31    4.1   316      8.6   941.2    0.00       0    58.2
  39   23:30   53.3    32    2.9   317      7.8   941.1    0.00       0    58.1
  39   23:40   53.4    32    3.7   316      7.5   941.2    0.00       0    58.0
  39   23:50   52.9    33    3.4   319      6.6   941.2    0.00       0    57.9
  40    0:00   52.1    34    2.9   320      6.6   941.2    0.00       0    57.8
  40    0:10   52.2    34    4.7   312      7.8   941.2    0.00       0    57.8
  40    0:20   52.4    34    3.3   314      8.0   941.2    0.00       0    57.7
  40    0:30   53.7    32    5.4   309      9.5   941.2    0.00       0    57.6
  40    0:40   53.9    32    5.5   309      9.3   941.1    0.00       0    57.5
  40    0:50   53.5    32    4.6   315     10.8   941.1    0.00       0    57.4
  40    1:00   52.4    33    3.5   317      7.1   941.2    0.00       0    57.3
  40    1:10   52.7    33    5.3   314      9.9   941.1    0.00       0    57.2
  40    1:20   52.4    34    4.5   315     12.4   941.2    0.00       0    57.1
  40    1:30   52.8    33    7.4   307     12.2   941.1    0.00       0    57.1
  40    1:40   52.6    33    5.8   313      8.8   941.1    0.00       0    57.0
  40    1:50   52.3    34    4.4   314      7.5   941.2    0.00       0    56.9
  40    2:00   51.6    35    4.8   311     10.0   941.1    0.00       0    56.8
  40    2:10   52.6    34    4.3   320      9.1   941.1    0.00       0    56.8
  40    2:20   52.8    34    3.4   319      8.0   941.0    0.00       0    56.7
  40    2:30   52.6    34    2.0   324      5.8   941.0    0.00       0    56.6
  40    2:40   51.9    35    0.7   326      4.4   941.1    0.00       0    56.5
  40    2:50   50.6    37    1.7   323      7.4   941.1    0.00       0    56.4
  40    3:00   49.9    39    1.3   324      4.2   940.9    0.00       0    56.3
  40    3:10   49.5    39    2.5   320      6.6   940.9    0.00       0    56.3
  40    3:20   50.7    37    3.7   322      7.7   940.8    0.00       0    56.2
  40    3:30   50.7    37    3.1   320      7.3   940.9    0.00       0    56.1
  40    3:40   50.8    38    3.3   325      7.7   940.9    0.00       0    56.0
  40    3:50   51.0    37    3.7   325      9.7   940.9    0.00       0    56.0
  40    4:00   51.4    37    4.8   318      9.2   940.9    0.00       0    55.9
  40    4:10   51.0    38    4.9   319     10.0   940.9    0.00       0    55.8
  40    4:20   50.9    38    5.8   316     10.9   940.9    0.00       0    55.7
  40    4:30   50.7    38    5.5   315      8.9   940.9    0.00       0    55.7
  40    4:40   50.7    38    4.1   318     10.1   940.9    0.00       0    55.6
  40    4:50   50.9    37    2.8   327      6.5   941.0    0.00       0    55.5
  40    5:00   49.6    40    1.7   329      4.5   941.1    0.00       0    55.4
  40    5:10   48.7    41    1.4   324      3.9   941.1    0.00       0    55.4
  40    5:20   48.5    42    4.5   311     11.9   941.1    0.00       0    55.3
  40    5:30   49.3    40    6.2   313     11.4   941.0    0.00       0    55.2
  40    5:40   49.5    39    3.4   315      7.2   941.1    0.00       0    55.2
  40    5:50   49.2    39    2.6   321      6.7   941.1    0.00       0    55.1
  40    6:00   49.2    38    3.3   322      5.6   941.0    0.00       0    55.0
  40    6:10   48.4    40    3.0   322      6.2   941.1    0.00       0    55.0
  40    6:20   48.1    42    0.5   343      5.3   941.2    0.00       0    54.9
  40    6:30   46.4    43    1.2   345      4.9   941.3    0.00       0    54.8
  40    6:40   44.5    46    1.6   333      5.1   941.3    0.00       2    54.8
  40    6:50   45.1    45    1.8   316      4.5   941.2    0.00       6    54.7
  40    7:00   44.1    46    0.3   322      3.5   941.1    0.00      24    54.7
  40    7:10   44.7    45    0.8   326      3.1   941.1    0.00      52    54.6
  40    7:20   45.0    45    1.4   318      4.3   941.1    0.00      82    54.4
  40    7:30   45.3    45    1.2   329      3.6   941.3    0.00     120    54.3
  40    7:40   47.3    43    2.0   323      5.4   941.3    0.00     155    54.2
  40    7:50   49.5    41    1.1   322      4.3   941.5    0.00     185    54.2
  40    8:00   49.9    42    2.2   318      4.6   941.6    0.00     216    54.1
  40    8:10   51.0    40    1.1   333      3.7   941.8    0.00     247    54.0
  40    8:20   51.7    36    3.7   318      6.5   941.9    0.00     279    53.9
  40    8:30   53.5    33    4.3   314      7.7   941.9    0.00     310    53.9
  40    8:40   54.9    33    3.6   317      6.9   942.1    0.00     340    53.9
  40    8:50   57.0    30    5.3   312     10.2   942.1    0.00     370    53.8
  40    9:00   58.1    29    5.9   315     10.5   942.2    0.00     398    53.7
  40    9:10   58.3    29    9.4   308     16.4   942.2    0.00     179    53.7
  40    9:20   59.1    28   10.0   307     16.3   942.2    0.00     302    53.7
  40    9:30   59.7    27   12.3   305     18.2   942.2    0.00     479    53.7
  40    9:40   61.0    26    9.0   307     15.5   942.2    0.00     502    53.7
  40    9:50   62.6    24    4.5   323     13.1   942.3    0.00     525    53.7
  40   10:00   64.0    24    2.4   334      7.4   942.3    0.00     546    53.7
  40   10:10   64.8    23    2.9   321      7.9   942.4    0.00     565    53.7
  40   10:20   64.0    24    6.7   308     12.4   942.4    0.00     586    53.7
  40   10:30   64.1    24    6.2   307     12.6   942.4    0.00     604    53.8
  40   10:40   64.8    23    6.0   306     12.9   942.2    0.00     619    53.9
  40   10:50   65.2    22    6.0   306     11.4   942.0    0.00     633    53.9
  40   11:00   66.0    21    6.5   306     12.6   942.0    0.00     645    54.0
  40   11:10   66.9    20    4.8   306      9.7   941.9    0.00     655    54.2
  40   11:20   67.7    20    4.6   308      9.3   941.7    0.00     664    54.3
  40   11:30   68.7    19    3.0   304      6.9   941.5    0.00     670    54.4
  40   11:40   69.0    18    4.0   306      9.3   941.3    0.00     675    54.5
  40   11:50   69.0    18    3.3   309      9.6   941.2    0.00     679    54.6
  40   12:00   69.7    17    2.7   301      9.4   940.9    0.00     680    54.8
  40   12:10   70.8    16    2.6   301      8.0   940.7    0.00     681    54.9
  40   12:20   71.2    15    3.8   301      8.5   940.5    0.00     680    55.0
  40   12:30   71.2    15    3.1   308     11.2   940.3    0.00     677    55.1
  40   12:40   71.7    15    4.9   302     11.1   940.0    0.00     672    55.3
  40   12:50   72.5    14    2.8   297      8.6   939.8    0.00     665    55.5
  40   13:00   72.9    14    3.5   283      9.9   939.6    0.00     655    55.7
  40   13:10   72.7    14    3.2   307      7.9   939.4    0.00     647    55.9
  40   13:20   74.3    14    2.4   314      6.3   939.3    0.00     634    56.2
  40   13:30   74.0    13    1.4    33      4.3   939.2    0.00     618    56.4
  40   13:40   75.4    13    0.6    79      2.6   939.1    0.00     602    56.7
  40   13:50   75.6    13    1.4   210      3.4   939.1    0.00     583    57.0
  40   14:00   76.5    13    1.3   223      3.6   939.0    0.00     566    57.3
  40   14:10   75.6    13    2.0   271      5.8   938.8    0.00     548    57.6
  40   14:20   75.4    13    1.2   314      4.2   938.7    0.00     532    57.9
  40   14:30   77.1    13    1.1   183      4.0   938.6    0.00     503    58.2
  40   14:40   76.8    13    1.4   290      4.8   938.6    0.00     483    58.5
  40   14:50   76.5    13    2.0   305      5.8   938.7    0.00     458    58.8
  40   15:00   75.9    13    3.0   302      6.0   938.6    0.00     432    59.1
  40   15:10   75.7    13    2.7   304      7.2   938.5    0.00     404    59.5
  40   15:20   76.7    13    1.9   302      5.5   938.5    0.00     374    59.8
  40   15:30   76.2    13    2.7   302      6.7   938.4    0.00     345    60.1
  40   15:40   76.5    13    1.4   314      4.0   938.3    0.00     315    60.4
  40   15:50   76.6    13    1.4   303      2.9   938.3    0.00     285    60.6
  40   16:00   75.9    13    1.8   308      5.3   938.3    0.00     256    60.9
  40   16:10   75.7    13    1.5   300      4.3   938.3    0.00     123    61.1
  40   16:20   74.8    13    3.3   306      6.2   938.2    0.00      50    61.4
  40   16:30   74.5    13    2.7   307      5.0   938.1    0.00      36    61.6
  40   16:40   74.4    13    2.2   308      4.6   938.1    0.00      22    61.8
  40   16:50   74.2    13    2.3   305      3.7   938.1    0.00      22    62.0
  40   17:00   74.3    13    1.1   307      2.7   938.2    0.00      16    62.1
  40   17:10   73.8    14    0.1   304      1.2   938.0    0.00      12    62.3
  40   17:20   71.7    15    0.1   304      1.2   937.9    0.00       4    62.4
  40   17:30   69.8    17    0.0     0      0.0   937.8    0.00       3    62.5
  40   17:40   68.1    18    0.0     0      0.0   937.6    0.00       1    62.6
  40   17:50   67.4    19    0.0     0      0.0   937.5    0.00       0    62.7
  40   18:00   66.1    20    0.0     0      0.0   937.5    0.00       0    62.8
  40   18:10   65.0    21    0.4    55      1.8   937.5    0.00       0    62.8
  40   18:20   63.4    24    2.1    58      6.9   937.5    0.00       0    62.8
  40   18:30   62.0    27    2.5    86      6.7   937.4    0.00       0    62.8
  40   18:40   62.0    26    1.1    71      5.0   937.4    0.00       0    62.7
  40   18:50   61.1    27    0.5    88      3.9   937.5    0.00       0    62.7

Return to Amargosa Valley, Nevada graphs page.


Western Regional Climate Center,wrcc@dri.edu